Time;durP1;ratioP1;P1;durP2;ratioP2;P2;SDS_P1;SDS_P2;PMS_P1;PMS_P2;Temp;Humidity;BMP_temperature;BMP_pressure;BME280_temperature;BME280_humidity;BME280_pressure;Samples;Min_cycle;Max_cycle;Signal;HPM_P1;HPM_P2
2022/12/16 00:00:10;;;;;;;4.05;3.65;;;;;;;1.91;93.12;98673.41;5053609;28;20049;-65
2022/12/16 00:02:39;;;;;;;2.92;2.72;;;;;;;1.91;92.76;98659.19;5053632;28;20128;-66
2022/12/16 00:05:09;;;;;;;1.67;1.63;;;;;;;1.92;92.88;98655.00;5053463;28;20131;-66
2022/12/16 00:07:37;;;;;;;;;;;;;;;1.93;92.58;98651.66;5053764;28;20053;-66
2022/12/16 00:10:08;;;;;;;2.33;2.10;;;;;;;1.93;92.96;98651.66;5053528;28;19920;-64
2022/12/16 00:12:37;;;;;;;2.65;2.25;;;;;;;1.93;93.35;98661.72;5053508;28;20041;-65
2022/12/16 00:15:06;;;;;;;0.90;0.90;;;;;;;1.93;93.04;98662.56;5053425;28;20041;-65
2022/12/16 00:17:38;;;;;;;1.73;1.33;;;;;;;1.93;93.08;98661.72;5053707;28;20041;-66
2022/12/16 00:20:08;;;;;;;1.23;1.08;;;;;;;1.92;93.57;98660.03;5053248;28;20573;-64
2022/12/16 00:22:37;;;;;;;3.03;2.83;;;;;;;1.93;93.56;98661.72;5053343;28;20045;-65
2022/12/16 00:25:06;;;;;;;4.30;3.22;;;;;;;1.93;93.23;98659.19;5053294;28;20135;-66
2022/12/16 00:27:35;;;;;;;0.77;0.77;;;;;;;1.94;93.45;98659.22;5053358;28;20048;-65
2022/12/16 00:30:04;;;;;;;1.27;1.17;;;;;;;1.95;92.83;98655.88;5053573;28;20045;-64
2022/12/16 00:32:33;;;;;;;1.98;1.70;;;;;;;1.97;92.88;98659.25;5053299;28;20052;-64
2022/12/16 00:35:03;;;;;;;2.50;2.33;;;;;;;1.98;92.88;98652.56;5053241;28;20080;-66
2022/12/16 00:37:32;;;;;;;3.80;2.30;;;;;;;1.99;92.92;98654.28;5053571;28;20056;-64
2022/12/16 00:40:00;;;;;;;2.08;1.95;;;;;;;1.99;92.99;98660.13;5053240;28;20044;-64
2022/12/16 00:42:29;;;;;;;1.83;1.73;;;;;;;2.01;93.14;98650.13;5053188;28;20037;-66
2022/12/16 00:44:58;;;;;;;3.83;3.10;;;;;;;2.01;93.96;98645.94;5053118;28;20037;-66
2022/12/16 00:47:27;;;;;;;3.10;2.80;;;;;;;2.02;93.57;98651.78;5053166;28;20128;-66
2022/12/16 00:49:56;;;;;;;4.68;2.67;;;;;;;2.01;93.31;98637.53;5053954;28;20041;-65
2022/12/16 00:52:26;;;;;;;3.95;3.28;;;;;;;2.01;93.02;98640.06;5053074;28;20037;-65
2022/12/16 00:54:54;;;;;;;1.92;1.83;;;;;;;1.99;93.83;98641.69;5053044;28;20076;-66
2022/12/16 00:57:23;;;;;;;7.10;4.53;;;;;;;1.98;93.79;98645.03;5053387;28;20503;-65
2022/12/16 00:59:52;;;;;;;2.50;2.30;;;;;;;1.99;93.14;98649.25;5052989;28;20286;-64
2022/12/16 01:02:23;;;;;;;3.25;2.88;;;;;;;1.99;93.47;98642.53;5053062;28;20048;-65
2022/12/16 01:04:52;;;;;;;2.17;2.07;;;;;;;2.01;93.48;98640.06;5053211;28;20061;-66
2022/12/16 01:07:22;;;;;;;4.00;1.98;;;;;;;2.00;93.14;98638.34;5053022;28;20658;-64
2022/12/16 01:09:52;;;;;;;3.10;2.85;;;;;;;1.99;93.29;98636.66;5052836;28;20517;-64
2022/12/16 01:12:22;;;;;;;3.58;3.30;;;;;;;1.94;93.26;98624.00;5053252;28;20461;-64
2022/12/16 01:14:51;;;;;;;2.67;2.22;;;;;;;1.94;94.09;98623.16;5052889;28;20052;-65
2022/12/16 01:17:21;;;;;;;2.50;2.25;;;;;;;1.90;94.01;98617.22;5053101;28;20161;-65
2022/12/16 01:19:49;;;;;;;2.72;2.53;;;;;;;1.83;93.60;98610.41;5052926;28;20406;-66
2022/12/16 01:22:18;;;;;;;4.00;2.13;;;;;;;1.77;93.80;98581.81;5052816;28;20495;-65
2022/12/16 01:24:47;;;;;;;5.97;4.30;;;;;;;1.81;94.02;98586.06;5052763;28;20077;-65
2022/12/16 01:27:17;;;;;;;2.22;2.13;;;;;;;1.81;93.83;98588.56;5053110;28;20281;-65
2022/12/16 01:29:45;;;;;;;4.15;3.53;;;;;;;1.78;93.22;98580.97;5052810;28;20057;-65
2022/12/16 01:32:14;;;;;;;7.43;3.05;;;;;;;1.81;93.18;98576.00;5053197;28;20041;-66
2022/12/16 01:34:43;;;;;;;4.47;3.67;;;;;;;1.84;93.82;98586.09;5056554;28;20426;-65
2022/12/16 01:37:19;;;;;;;1.08;1.02;;;;;;;1.83;93.46;98584.41;5056312;28;20517;-65
2022/12/16 01:39:49;;;;;;;3.60;3.30;;;;;;;1.84;93.38;98581.94;5056215;28;20045;-65
2022/12/16 01:42:22;;;;;;;1.25;1.17;;;;;;;1.82;93.47;98562.59;5056463;28;20136;-65
2022/12/16 01:44:53;;;;;;;3.15;2.65;;;;;;;1.80;93.52;98549.16;5056156;28;20094;-66
2022/12/16 01:47:26;;;;;;;1.80;1.67;;;;;;;1.83;93.54;98554.22;5056110;28;20060;-66
2022/12/16 01:50:01;;;;;;;3.92;3.25;;;;;;;1.80;93.37;98541.63;5056014;28;20045;-66
2022/12/16 01:52:33;;;;;;;5.55;2.63;;;;;;;1.80;93.94;98536.59;5055987;28;20053;-64
2022/12/16 01:55:07;;;;;;;2.83;2.63;;;;;;;1.78;94.38;98525.63;5055979;28;20559;-66
2022/12/16 01:57:42;;;;;;;10.48;4.75;;;;;;;1.79;93.97;98527.34;5056235;28;20115;-65
2022/12/16 02:00:12;;;;;;;2.65;2.45;;;;;;;1.80;93.54;98524.03;5055847;28;20052;-64
2022/12/16 02:02:43;;;;;;;2.75;2.55;;;;;;;1.79;93.76;98512.25;5056133;28;20048;-65
2022/12/16 02:07:58;;;;;;;2.22;2.03;;;;;;;1.77;94.49;98499.69;5056012;28;20045;-65
2022/12/16 02:10:37;;;;;;;4.72;3.72;;;;;;;1.79;94.35;98497.16;5055662;28;20056;-65
2022/12/16 02:13:18;;;;;;;3.57;3.27;;;;;;;1.79;94.15;98482.09;5055698;28;20048;-66
2022/12/16 02:15:55;;;;;;;2.78;2.58;;;;;;;1.81;94.32;98475.41;5055540;28;20080;-65
2022/12/16 02:18:37;;;;;;;2.35;2.15;;;;;;;1.81;94.03;98456.13;5055526;28;20055;-64
2022/12/16 02:21:29;;;;;;;4.82;3.08;;;;;;;1.81;93.80;98435.16;5055450;28;20049;-65
2022/12/16 02:24:26;;;;;;;2.63;2.08;;;;;;;1.76;93.72;98425.03;5055663;28;20072;-63
2022/12/16 02:27:29;;;;;;;2.80;2.25;;;;;;;1.69;94.25;98410.69;5055318;28;20052;-64
2022/12/16 02:30:27;;;;;;;4.30;3.90;;;;;;;1.73;94.14;98411.56;5015849;28;20041;-64
2022/12/16 02:33:12;;;;;;;2.47;2.28;;;;;;;1.73;94.68;98409.91;5030158;28;20048;-64
2022/12/16 02:35:49;;;;;;;1.83;1.13;;;;;;;1.72;94.15;98405.72;5055216;28;20055;-63
2022/12/16 02:38:26;;;;;;;3.20;2.63;;;;;;;1.74;94.33;98394.00;5055173;28;20057;-63
2022/12/16 02:41:01;;;;;;;1.88;1.67;;;;;;;1.74;94.28;98373.91;5055091;28;20127;-65
2022/12/16 02:43:48;;;;;;;3.67;2.70;;;;;;;1.76;94.67;98371.38;5054939;28;20060;-64
2022/12/16 02:46:19;;;;;;;2.17;2.05;;;;;;;1.78;94.60;98355.50;5054897;28;20480;-64
2022/12/16 02:48:50;;;;;;;0.82;0.82;;;;;;;1.79;94.78;98347.13;5055226;28;20441;-64
2022/12/16 02:51:19;;;;;;;6.75;1.92;;;;;;;1.81;95.25;98339.59;5054899;28;20144;-64
2022/12/16 02:53:50;;;;;;;3.00;2.10;;;;;;;1.80;95.20;98336.22;5055104;28;20411;-63
2022/12/16 02:56:32;;;;;;;1.23;1.13;;;;;;;1.82;94.98;98336.28;5055905;28;20048;-64
2022/12/16 02:59:15;;;;;;;3.28;2.97;;;;;;;1.80;95.01;98330.38;5055099;28;20122;-64
2022/12/16 03:01:52;;;;;;;2.92;2.72;;;;;;;1.78;94.54;98320.28;5054708;28;20059;-64
2022/12/16 03:04:30;;;;;;;3.85;3.55;;;;;;;1.78;94.67;98320.28;5054654;28;20052;-65
2022/12/16 03:07:01;;;;;;;5.47;5.00;;;;;;;1.85;94.44;98326.22;5054826;28;20540;-64
2022/12/16 03:09:34;;;;;;;3.40;3.03;;;;;;;1.88;95.52;98336.31;5054220;28;20051;-64
2022/12/16 03:12:08;;;;;;;2.60;2.40;;;;;;;1.90;95.30;98339.69;5054763;28;20455;-64
2022/12/16 03:14:40;;;;;;;4.20;3.45;;;;;;;1.91;94.65;98342.25;5054479;28;20041;-64
2022/12/16 03:17:11;;;;;;;1.15;1.10;;;;;;;1.90;94.94;98329.63;5054689;28;20487;-65
2022/12/16 03:19:46;;;;;;;3.03;2.72;;;;;;;1.93;95.32;98332.19;5054330;28;20048;-64
2022/12/16 03:22:20;;;;;;;1.17;1.08;;;;;;;1.97;94.48;98337.28;5054287;28;20048;-64
2022/12/16 03:24:49;;;;;;;3.97;2.42;;;;;;;2.00;95.53;98336.47;5054185;28;20056;-64
2022/12/16 03:27:26;;;;;;;6.22;2.55;;;;;;;2.01;95.08;98340.69;5054157;28;20037;-64
2022/12/16 03:30:02;;;;;;;1.92;1.83;;;;;;;2.05;94.66;98342.41;5054457;28;20705;-64
2022/12/16 03:32:37;;;;;;;2.40;1.92;;;;;;;2.08;94.90;98324.84;5054124;28;20061;-64
2022/12/16 03:35:14;;;;;;;0.82;0.82;;;;;;;2.14;95.38;98334.94;5054091;28;20103;-65
2022/12/16 03:37:45;;;;;;;1.05;1.05;;;;;;;2.16;94.72;98338.31;5053999;28;20052;-64
2022/12/16 03:40:15;;;;;;;1.00;1.00;;;;;;;2.18;95.70;98346.75;5054322;28;20053;-64
2022/12/16 03:42:44;;;;;;;;;;;;;;;2.21;94.88;98335.88;5054385;28;20522;-64
2022/12/16 03:45:17;;;;;;;0.77;0.77;;;;;;;2.23;95.58;98319.94;5053802;28;19928;-64
2022/12/16 03:47:49;;;;;;;0.40;0.40;;;;;;;2.26;95.83;98314.94;5053896;28;20056;-63
2022/12/16 03:50:25;;;;;;;2.08;1.65;;;;;;;2.29;95.39;98309.94;5053763;28;20055;-63
2022/12/16 03:52:54;;;;;;;1.02;1.02;;;;;;;2.31;94.83;98298.22;5054061;28;20059;-65
2022/12/16 03:55:22;;;;;;;1.80;1.67;;;;;;;2.32;95.53;98294.88;5053248;28;20056;-64
2022/12/16 03:57:51;;;;;;;0.95;0.95;;;;;;;2.33;95.18;98295.69;5053770;28;20033;-64
2022/12/16 04:00:20;;;;;;;3.33;1.23;;;;;;;2.35;95.88;98299.91;5053627;28;20127;-64
2022/12/16 04:02:50;;;;;;;0.82;0.80;;;;;;;2.35;95.36;98284.81;5052772;28;20062;-65
2022/12/16 04:05:20;;;;;;;0.50;0.50;;;;;;;2.40;95.81;98298.28;5053502;28;20052;-64
2022/12/16 04:07:49;;;;;;;1.70;1.60;;;;;;;2.41;95.38;98284.88;5053387;28;20162;-66
2022/12/16 04:24:17;;;;;;;0.50;0.50;;;;;;;2.45;95.31;98281.56;5053530;28;20513;-64
2022/12/16 04:26:29;;;;;;;1.08;0.98;;;;;;;2.64;96.11;98265.75;5053320;28;20080;-63
2022/12/16 04:28:58;;;;;;;0.40;0.40;;;;;;;2.66;95.74;98266.63;5054095;28;20041;-64
2022/12/16 04:31:26;;;;;;;0.50;0.50;;;;;;;2.68;95.24;98277.56;5053325;28;20056;-63
